sensor_id;sensor_type;location;lat;lon;timestamp;pressure;altitude;pressure_sealevel;temperature;humidity
23635;BME280;11994;51.038;16.974;2024-03-17T09:56:41;100788.95;;;7.87;64.98
23635;BME280;11994;51.038;16.974;2024-03-17T09:59:07;100790.15;;;7.94;64.93
23635;BME280;11994;51.038;16.974;2024-03-17T10:01:33;100788.61;;;7.88;64.71
23635;BME280;11994;51.038;16.974;2024-03-17T10:03:58;100789.31;;;7.80;64.44
23635;BME280;11994;51.038;16.974;2024-03-17T10:06:29;100792.48;;;7.74;63.97
23635;BME280;11994;51.038;16.974;2024-03-17T10:08:56;100796.14;;;7.67;63.55
23635;BME280;11994;51.038;16.974;2024-03-17T10:11:24;100794.58;;;7.61;63.39
23635;BME280;11994;51.038;16.974;2024-03-17T10:14:19;100790.07;;;7.58;63.56
23635;BME280;11994;51.038;16.974;2024-03-17T10:16:44;100789.05;;;7.48;63.48
23635;BME280;11994;51.038;16.974;2024-03-17T10:19:11;100784.35;;;7.44;63.47
23635;BME280;11994;51.038;16.974;2024-03-17T10:21:38;100780.00;;;7.46;63.58
23635;BME280;11994;51.038;16.974;2024-03-17T10:26:54;100787.27;;;7.69;62.93
23635;BME280;11994;51.038;16.974;2024-03-17T10:31:48;100782.92;;;7.67;60.67
23635;BME280;11994;51.038;16.974;2024-03-17T10:34:15;100785.88;;;7.62;60.48
23635;BME280;11994;51.038;16.974;2024-03-17T10:36:47;100779.95;;;7.64;61.28
23635;BME280;11994;51.038;16.974;2024-03-17T10:39:30;100782.23;;;7.63;61.06
23635;BME280;11994;51.038;16.974;2024-03-17T10:41:57;100778.73;;;7.72;61.45
23635;BME280;11994;51.038;16.974;2024-03-17T10:44:27;100780.44;;;7.82;60.73
23635;BME280;11994;51.038;16.974;2024-03-17T10:46:55;100776.23;;;7.91;60.70
23635;BME280;11994;51.038;16.974;2024-03-17T10:49:31;100777.59;;;8.00;60.93
23635;BME280;11994;51.038;16.974;2024-03-17T10:52:02;100777.55;;;8.08;60.88
23635;BME280;11994;51.038;16.974;2024-03-17T10:54:29;100774.55;;;8.22;61.58
23635;BME280;11994;51.038;16.974;2024-03-17T10:56:57;100773.45;;;8.36;60.61
23635;BME280;11994;51.038;16.974;2024-03-17T10:59:42;100780.77;;;8.37;60.99
23635;BME280;11994;51.038;16.974;2024-03-17T11:02:23;100777.39;;;8.48;60.47
23635;BME280;11994;51.038;16.974;2024-03-17T11:04:57;100775.58;;;8.57;58.93
23635;BME280;11994;51.038;16.974;2024-03-17T11:07:24;100775.95;;;8.56;59.05
23635;BME280;11994;51.038;16.974;2024-03-17T11:09:51;100774.38;;;8.55;60.02
23635;BME280;11994;51.038;16.974;2024-03-17T11:17:46;100774.73;;;8.56;59.90
23635;BME280;11994;51.038;16.974;2024-03-17T11:20:17;100770.56;;;8.51;60.05
23635;BME280;11994;51.038;16.974;2024-03-17T11:22:49;100772.20;;;8.39;59.75
23635;BME280;11994;51.038;16.974;2024-03-17T11:27:53;100760.94;;;8.28;60.68
23635;BME280;11994;51.038;16.974;2024-03-17T11:46:57;100746.45;;;8.59;57.34
23635;BME280;11994;51.038;16.974;2024-03-17T11:49:29;100749.45;;;8.55;56.43
23635;BME280;11994;51.038;16.974;2024-03-17T11:51:57;100744.59;;;8.52;57.25
23635;BME280;11994;51.038;16.974;2024-03-17T11:54:24;100740.80;;;8.44;57.34
23635;BME280;11994;51.038;16.974;2024-03-17T11:56:59;100740.31;;;8.39;57.63
23635;BME280;11994;51.038;16.974;2024-03-17T11:59:26;100746.08;;;8.34;56.71
23635;BME280;11994;51.038;16.974;2024-03-17T12:01:52;100738.65;;;8.26;56.15
23635;BME280;11994;51.038;16.974;2024-03-17T12:04:19;100737.27;;;8.25;56.21
23635;BME280;11994;51.038;16.974;2024-03-17T12:06:50;100734.27;;;8.28;56.77
23635;BME280;11994;51.038;16.974;2024-03-17T12:09:25;100729.01;;;8.35;57.37
23635;BME280;11994;51.038;16.974;2024-03-17T12:12:02;100722.48;;;8.46;57.42
23635;BME280;11994;51.038;16.974;2024-03-17T12:14:29;100717.20;;;8.55;57.10
23635;BME280;11994;51.038;16.974;2024-03-17T12:17:09;100719.20;;;8.67;57.00
23635;BME280;11994;51.038;16.974;2024-03-17T12:19:36;100712.36;;;8.73;56.98
23635;BME280;11994;51.038;16.974;2024-03-17T12:22:04;100716.40;;;8.68;56.64
23635;BME280;11994;51.038;16.974;2024-03-17T12:24:35;100712.78;;;8.63;55.67
23635;BME280;11994;51.038;16.974;2024-03-17T12:27:05;100712.80;;;8.61;56.11
23635;BME280;11994;51.038;16.974;2024-03-17T12:29:32;100711.05;;;8.62;56.69
23635;BME280;11994;51.038;16.974;2024-03-17T12:32:21;100709.65;;;8.63;56.75
23635;BME280;11994;51.038;16.974;2024-03-17T12:34:50;100705.61;;;8.66;56.77
23635;BME280;11994;51.038;16.974;2024-03-17T12:37:18;100705.23;;;8.69;56.52
23635;BME280;11994;51.038;16.974;2024-03-17T12:39:43;100698.02;;;8.77;56.30
23635;BME280;11994;51.038;16.974;2024-03-17T12:42:14;100700.34;;;8.92;56.75
23635;BME280;11994;51.038;16.974;2024-03-17T12:44:57;100696.38;;;9.05;56.24
23635;BME280;11994;51.038;16.974;2024-03-17T12:47:27;100701.88;;;9.14;56.60
23635;BME280;11994;51.038;16.974;2024-03-17T12:52:29;100696.84;;;9.10;56.28
23635;BME280;11994;51.038;16.974;2024-03-17T12:55:04;100694.73;;;9.13;56.10
23635;BME280;11994;51.038;16.974;2024-03-17T12:57:50;100693.73;;;9.08;54.27
23635;BME280;11994;51.038;16.974;2024-03-17T13:00:35;100697.77;;;9.05;53.17
23635;BME280;11994;51.038;16.974;2024-03-17T13:03:08;100691.56;;;8.97;54.03
23635;BME280;11994;51.038;16.974;2024-03-17T13:05:34;100690.58;;;8.91;53.75
23635;BME280;11994;51.038;16.974;2024-03-17T13:08:00;100688.20;;;8.84;53.75
23635;BME280;11994;51.038;16.974;2024-03-17T13:10:28;100688.77;;;8.78;53.95
23635;BME280;11994;51.038;16.974;2024-03-17T13:13:04;100687.68;;;8.83;54.37
23635;BME280;11994;51.038;16.974;2024-03-17T13:15:31;100684.43;;;8.93;54.63
23635;BME280;11994;51.038;16.974;2024-03-17T13:17:59;100681.73;;;9.05;53.73
23635;BME280;11994;51.038;16.974;2024-03-17T13:20:25;100677.47;;;9.12;53.91
23635;BME280;11994;51.038;16.974;2024-03-17T13:22:51;100674.05;;;9.21;53.14
23635;BME280;11994;51.038;16.974;2024-03-17T13:25:19;100668.15;;;9.34;53.71
23635;BME280;11994;51.038;16.974;2024-03-17T13:27:47;100667.74;;;9.39;53.27
23635;BME280;11994;51.038;16.974;2024-03-17T13:30:14;100671.27;;;9.36;52.60
23635;BME280;11994;51.038;16.974;2024-03-17T13:32:41;100668.69;;;9.33;53.37
23635;BME280;11994;51.038;16.974;2024-03-17T13:35:18;100675.41;;;9.25;53.13
23635;BME280;11994;51.038;16.974;2024-03-17T13:37:49;100677.79;;;9.15;52.74
23635;BME280;11994;51.038;16.974;2024-03-17T13:40:16;100678.55;;;9.07;53.16
23635;BME280;11994;51.038;16.974;2024-03-17T13:42:44;100678.23;;;9.04;52.92
23635;BME280;11994;51.038;16.974;2024-03-17T13:45:11;100679.30;;;9.02;53.04
23635;BME280;11994;51.038;16.974;2024-03-17T13:47:36;100676.38;;;8.98;52.42
